Current | Forecast
Updated: 10:00 PM JST on August 16, 2017
Observed at Kansai, Japan
Temperature 82°F
Humidity 89%
Dew Point 79°F
Wind SW at 7 mph
Pressure 29.71 in (Steady)
Conditions Mostly Cloudy
Visibility 6.2 miles
UV 0 out of 16
Clouds (FEW) : 1500 ft
Scattered Clouds (SCT) : 3500 ft
Mostly Cloudy (BKN) : 8000 ft
Yesterday's Maximum 84°F
Yesterday's Minimum 77°F approx.
Yesterday's Cooling Degree Days 16 approx.
Sunrise5:21 AM JST
Sunset6:47 PM JST
Moon Rise
Moon Set1:38 PM JST
Moon PhaseMoon Phase
Waning Crescent
Raw METARMETAR RJBB 161300Z 22006KT 9999 VCSH FEW015 SCT035 BKN080 28/26 Q1006 NOSIG


Monday
. High: 73° F.
Tuesday
. High: 75° F.
Wednesday
. High: 71° F.
Thursday
. High: 75° F.
Friday
. High: 75° F.
Saturday
. High: 75° F.
Sunday
. High: 75° F.
Monday
. High: 69° F.

Units: English | Metric

Find the Weather for any City, State or Zipcode, or Country:

U.S. State List | Severe Weather | Tropical Storms | Ski Conditions
United States | Canada | Central America | South America | Asia | Europe | Australia | Africa | Islands

Weather Underground

© Copyright 2017
The Weather Company, LLC